Time;durP1;ratioP1;P1;durP2;ratioP2;P2;SDS_P1;SDS_P2;PMS_P1;PMS_P2;Temp;Humidity;BMP_temperature;BMP_pressure;BME280_temperature;BME280_humidity;BME280_pressure;Samples;Min_cycle;Max_cycle;Signal;HPM_P1;HPM_P2
2022/04/10 00:00:45;;;;;;;1.73;1.60;;;11.40;48.10;;;;;;5004010;28;20209;-45
2022/04/10 00:03:11;;;;;;;2.90;2.60;;;11.30;48.30;;;;;;5002448;28;20510;-47
2022/04/10 00:05:37;;;;;;;3.07;2.40;;;11.30;48.40;;;;;;5008910;28;20536;-46
2022/04/10 00:08:03;;;;;;;2.53;2.10;;;11.30;48.40;;;;;;5009330;28;20433;-47
2022/04/10 00:10:29;;;;;;;5.70;2.33;;;11.30;48.30;;;;;;5007778;28;20479;-50
2022/04/10 00:12:55;;;;;;;4.30;2.70;;;11.30;48.20;;;;;;5008667;28;20221;-48
2022/04/10 00:15:21;;;;;;;6.60;3.20;;;11.10;48.20;;;;;;5009456;28;20281;-49
2022/04/10 00:17:47;;;;;;;1.97;1.73;;;11.10;48.50;;;;;;5007684;28;20532;-46
2022/04/10 00:20:12;;;;;;;4.80;2.27;;;11.10;48.70;;;;;;5003092;28;20233;-49
2022/04/10 00:22:42;;;;;;;3.67;2.80;;;11.00;48.80;;;;;;5006095;28;20525;-46
2022/04/10 00:25:13;;;;;;;2.53;2.20;;;11.10;48.90;;;;;;5008866;28;20229;-46
2022/04/10 00:27:40;;;;;;;3.90;2.57;;;11.00;48.80;;;;;;5003872;28;20865;-49
2022/04/10 00:30:07;;;;;;;5.13;2.40;;;11.00;48.80;;;;;;5007407;28;20441;-51
2022/04/10 00:32:32;;;;;;;3.00;2.33;;;11.00;48.60;;;;;;5003950;28;20953;-50
2022/04/10 00:34:58;;;;;;;2.63;2.17;;;11.00;48.70;;;;;;5004997;28;20491;-50
2022/04/10 00:37:25;;;;;;;3.50;2.30;;;10.90;48.70;;;;;;5000542;28;20214;-50
2022/04/10 00:39:50;;;;;;;3.03;2.30;;;10.90;48.90;;;;;;5007918;28;20987;-47
2022/04/10 00:42:16;;;;;;;4.53;2.40;;;10.90;49.00;;;;;;5007157;28;20488;-50
2022/04/10 00:44:41;;;;;;;4.57;2.70;;;10.80;49.20;;;;;;5006764;28;20397;-47
2022/04/10 00:47:10;;;;;;;4.70;2.73;;;10.80;49.10;;;;;;5003692;28;20213;-45
2022/04/10 00:49:36;;;;;;;2.70;2.47;;;10.80;49.50;;;;;;5007991;28;20194;-46
2022/04/10 00:52:01;;;;;;;2.20;2.00;;;10.80;49.60;;;;;;5006704;28;20441;-47
2022/04/10 00:54:30;;;;;;;5.00;3.07;;;10.80;49.40;;;;;;5006294;28;20447;-46
2022/04/10 00:56:58;;;;;;;3.77;1.90;;;10.70;49.30;;;;;;5006295;28;20205;-46
2022/04/10 00:59:25;;;;;;;2.90;2.53;;;10.70;49.20;;;;;;5003495;28;20445;-49
2022/04/10 01:01:50;;;;;;;3.87;2.17;;;10.70;49.20;;;;;;5005644;28;20511;-49
2022/04/10 01:04:16;;;;;;;5.63;2.53;;;10.60;49.30;;;;;;5003433;28;20477;-50
2022/04/10 01:06:47;;;;;;;3.70;2.23;;;10.60;49.30;;;;;;5006465;28;20198;-49
2022/04/10 01:09:14;;;;;;;6.63;3.03;;;10.60;49.30;;;;;;5010868;28;20198;-47
2022/04/10 01:11:40;;;;;;;3.70;2.40;;;10.60;49.50;;;;;;5003848;28;20499;-45
2022/04/10 01:14:05;;;;;;;5.20;2.70;;;10.50;49.90;;;;;;5002412;28;20434;-45
2022/04/10 01:16:32;;;;;;;3.53;2.50;;;10.40;50.00;;;;;;5003488;28;20459;-49
2022/04/10 01:18:58;;;;;;;3.13;2.60;;;10.40;50.00;;;;;;5004963;28;20446;-46
2022/04/10 01:21:26;;;;;;;6.03;2.57;;;10.40;50.00;;;;;;5007063;28;20506;-50
2022/04/10 01:23:53;;;;;;;4.80;2.50;;;10.40;50.20;;;;;;5006702;28;20186;-48
2022/04/10 01:26:19;;;;;;;4.43;2.87;;;10.30;50.20;;;;;;5006623;28;20441;-47
2022/04/10 01:29:08;;;;;;;4.03;2.70;;;10.30;50.30;;;;;;5009594;28;20463;-51
2022/04/10 01:31:36;;;;;;;4.40;2.50;;;10.20;50.50;;;;;;5001311;28;20459;-48
2022/04/10 01:34:07;;;;;;;3.50;2.43;;;10.20;50.50;;;;;;5003558;28;21116;-46
2022/04/10 01:36:34;;;;;;;6.27;2.40;;;10.20;50.60;;;;;;5005473;28;20463;-50
2022/04/10 01:39:02;;;;;;;4.07;3.10;;;10.10;50.70;;;;;;5005977;28;20528;-46
2022/04/10 01:41:30;;;;;;;3.73;2.90;;;10.10;50.80;;;;;;5004412;28;20448;-48
2022/04/10 01:43:56;;;;;;;3.20;2.50;;;10.10;51.10;;;;;;5007094;28;20476;-45
2022/04/10 01:46:25;;;;;;;4.70;2.90;;;10.10;51.50;;;;;;5006456;28;20456;-46
2022/04/10 01:48:50;;;;;;;5.17;2.90;;;10.10;51.40;;;;;;5006315;28;20807;-45
2022/04/10 01:51:16;;;;;;;3.40;2.23;;;10.10;51.40;;;;;;5005598;28;20436;-45
2022/04/10 01:53:42;;;;;;;4.10;2.50;;;10.10;51.40;;;;;;4997820;28;20203;-45
2022/04/10 01:56:09;;;;;;;7.10;3.20;;;10.10;51.60;;;;;;5011634;28;20202;-46
2022/04/10 01:58:40;;;;;;;2.90;2.70;;;10.20;51.70;;;;;;5010109;28;20429;-49
2022/04/10 02:01:08;;;;;;;3.73;3.03;;;10.20;51.80;;;;;;4996183;28;20449;-45
2022/04/10 02:03:34;;;;;;;4.60;2.30;;;10.20;51.80;;;;;;5002566;28;20539;-46
2022/04/10 02:06:00;;;;;;;2.77;2.50;;;10.20;51.70;;;;;;5007179;28;20467;-47
2022/04/10 02:08:27;;;;;;;2.43;2.27;;;10.30;51.70;;;;;;5007667;28;20626;-46
2022/04/10 02:10:53;;;;;;;4.17;2.70;;;10.20;51.70;;;;;;5007587;28;20252;-47
2022/04/10 02:13:19;;;;;;;5.20;2.83;;;10.20;51.90;;;;;;5003649;28;20852;-48
2022/04/10 02:15:45;;;;;;;5.47;3.27;;;10.20;52.00;;;;;;5006348;28;20218;-46
2022/04/10 02:18:10;;;;;;;3.17;2.40;;;10.10;52.20;;;;;;5005194;28;20986;-48
2022/04/10 02:20:36;;;;;;;6.17;3.10;;;10.10;52.30;;;;;;5005214;28;20198;-46
2022/04/10 02:23:02;;;;;;;5.70;4.70;;;10.10;52.40;;;;;;5005492;28;20229;-46
2022/04/10 02:25:27;;;;;;;6.83;3.70;;;10.20;52.30;;;;;;5004988;28;20240;-46
2022/04/10 02:27:53;;;;;;;4.63;2.63;;;10.20;52.10;;;;;;5009756;28;20712;-46
2022/04/10 02:30:18;;;;;;;5.27;2.50;;;10.10;52.00;;;;;;5010925;28;20229;-47
2022/04/10 02:32:45;;;;;;;5.80;2.83;;;10.10;52.00;;;;;;5022231;28;20293;-47
2022/04/10 02:35:11;;;;;;;4.27;2.57;;;10.10;51.90;;;;;;5008011;28;20681;-45
2022/04/10 02:37:37;;;;;;;7.53;2.73;;;10.20;51.80;;;;;;5007841;28;20446;-47
2022/04/10 02:40:04;;;;;;;6.07;2.67;;;10.20;51.60;;;;;;5008164;28;20476;-49
2022/04/10 02:42:33;;;;;;;2.93;2.23;;;10.20;51.40;;;;;;5009889;28;20492;-46
2022/04/10 02:44:59;;;;;;;3.40;2.40;;;10.20;51.10;;;;;;5010489;28;20947;-46
2022/04/10 02:47:25;;;;;;;2.70;2.50;;;10.10;51.00;;;;;;5007473;28;20449;-47
2022/04/10 02:49:51;;;;;;;2.90;2.53;;;10.10;51.00;;;;;;5009597;28;20452;-46
2022/04/10 02:52:16;;;;;;;4.40;2.60;;;10.10;51.00;;;;;;5009596;28;20464;-46
2022/04/10 02:54:42;;;;;;;4.53;2.60;;;10.00;50.90;;;;;;5009867;28;20200;-47
2022/04/10 02:57:07;;;;;;;3.60;2.57;;;10.00;51.00;;;;;;5012950;28;20194;-50
2022/04/10 02:59:34;;;;;;;3.57;2.70;;;10.00;51.00;;;;;;5010486;28;20198;-47
2022/04/10 03:01:59;;;;;;;4.47;2.70;;;10.00;50.90;;;;;;5002839;28;20283;-46
2022/04/10 03:04:25;;;;;;;2.50;2.30;;;9.90;51.70;;;;;;5005666;28;20932;-47
2022/04/10 03:06:51;;;;;;;4.57;2.80;;;9.90;51.70;;;;;;5007805;28;20277;-47
2022/04/10 03:09:17;;;;;;;3.33;2.80;;;9.90;51.80;;;;;;5003168;28;20202;-47
2022/04/10 03:11:43;;;;;;;3.50;2.90;;;9.90;51.90;;;;;;5010704;28;20444;-48
2022/04/10 03:14:08;;;;;;;5.47;2.77;;;9.80;52.10;;;;;;5010002;28;20440;-46
2022/04/10 03:16:34;;;;;;;6.90;2.90;;;9.80;52.20;;;;;;5011541;28;20194;-48
2022/04/10 03:19:00;;;;;;;3.37;2.70;;;9.70;52.20;;;;;;5009131;28;20634;-46
2022/04/10 03:21:25;;;;;;;4.90;2.60;;;9.70;52.20;;;;;;4999019;28;20202;-47
2022/04/10 03:23:51;;;;;;;3.80;3.07;;;9.60;52.30;;;;;;5009500;28;20605;-47
2022/04/10 03:26:16;;;;;;;3.80;2.47;;;9.50;52.40;;;;;;5010578;28;20709;-47
2022/04/10 03:28:42;;;;;;;3.90;2.70;;;9.50;52.60;;;;;;5014128;28;20232;-49
2022/04/10 03:31:08;;;;;;;3.23;2.93;;;9.50;52.70;;;;;;5010951;28;20226;-46
2022/04/10 03:33:33;;;;;;;4.90;2.67;;;9.60;52.70;;;;;;5011751;28;20229;-46
2022/04/10 03:35:59;;;;;;;7.00;2.90;;;9.50;52.50;;;;;;5007985;28;20891;-46
2022/04/10 03:38:24;;;;;;;3.00;2.73;;;9.50;52.60;;;;;;5012598;28;20204;-48
2022/04/10 03:40:50;;;;;;;5.57;3.20;;;9.50;52.80;;;;;;5005788;28;20194;-46
2022/04/10 03:43:16;;;;;;;4.57;2.70;;;9.40;52.70;;;;;;4999457;28;20249;-45
2022/04/10 03:45:44;;;;;;;3.40;2.70;;;9.40;52.70;;;;;;5007986;28;20201;-45
2022/04/10 03:48:10;;;;;;;3.10;2.80;;;9.30;52.80;;;;;;5005346;28;20248;-46
2022/04/10 03:50:36;;;;;;;6.40;2.80;;;9.30;52.90;;;;;;5006965;28;20440;-45
2022/04/10 03:53:03;;;;;;;3.40;2.87;;;9.30;53.00;;;;;;5005963;28;20221;-46
2022/04/10 03:55:29;;;;;;;5.83;2.97;;;9.40;53.20;;;;;;5006156;28;20441;-45
2022/04/10 03:57:54;;;;;;;3.77;2.97;;;9.30;53.00;;;;;;5015215;28;20494;-45
2022/04/10 04:00:20;;;;;;;4.50;3.00;;;9.30;52.90;;;;;;5004583;28;20245;-46
2022/04/10 04:02:46;;;;;;;3.43;3.13;;;9.30;52.80;;;;;;5005812;28;20275;-46
2022/04/10 04:05:12;;;;;;;3.40;2.87;;;9.40;52.80;;;;;;5007728;28;20189;-45
2022/04/10 04:07:38;;;;;;;3.03;2.73;;;9.30;52.70;;;;;;5005378;28;20194;-48
2022/04/10 04:10:05;;;;;;;4.53;3.50;;;9.20;52.80;;;;;;5007836;28;20449;-46
2022/04/10 04:12:33;;;;;;;3.10;2.90;;;9.20;52.80;;;;;;5009298;28;20441;-45
2022/04/10 04:14:58;;;;;;;3.57;3.13;;;9.20;53.00;;;;;;5004070;28;20503;-47
2022/04/10 04:17:24;;;;;;;4.33;3.70;;;9.20;53.00;;;;;;5003283;28;20457;-45
2022/04/10 04:19:51;;;;;;;4.20;3.80;;;9.20;53.00;;;;;;5007771;28;20194;-48
2022/04/10 04:22:19;;;;;;;3.57;2.87;;;9.20;53.20;;;;;;5006889;28;20264;-45
2022/04/10 04:24:45;;;;;;;5.73;3.27;;;9.10;53.10;;;;;;5007238;28;20491;-46
2022/04/10 04:27:11;;;;;;;3.23;2.93;;;9.10;53.30;;;;;;5009974;28;20441;-48
2022/04/10 04:29:36;;;;;;;5.43;3.60;;;9.00;54.00;;;;;;5010361;28;20833;-46
2022/04/10 04:32:03;;;;;;;4.70;2.70;;;9.00;53.50;;;;;;5008942;28;20320;-46
2022/04/10 04:34:28;;;;;;;4.10;2.77;;;9.00;53.70;;;;;;5007321;28;20202;-45
2022/04/10 04:36:54;;;;;;;3.37;2.63;;;9.00;53.80;;;;;;5010795;28;20451;-45
2022/04/10 04:39:19;;;;;;;4.10;3.70;;;8.90;53.90;;;;;;5003410;28;20677;-46
2022/04/10 04:41:45;;;;;;;3.10;2.80;;;8.90;54.30;;;;;;5003414;28;20217;-45
2022/04/10 04:44:11;;;;;;;4.47;3.00;;;8.90;54.40;;;;;;5007766;28;20248;-47
2022/04/10 04:46:37;;;;;;;4.90;2.80;;;8.90;54.60;;;;;;5007100;28;20286;-46
2022/04/10 04:49:03;;;;;;;4.70;3.27;;;8.90;54.40;;;;;;5007145;28;20247;-49
2022/04/10 04:51:29;;;;;;;3.20;3.00;;;9.00;54.30;;;;;;5009679;28;20217;-46
2022/04/10 04:53:55;;;;;;;3.23;2.70;;;9.00;54.40;;;;;;5008936;28;20468;-47
2022/04/10 04:56:21;;;;;;;3.77;3.47;;;9.00;54.30;;;;;;5010836;28;20189;-46
2022/04/10 04:58:50;;;;;;;3.20;3.00;;;9.00;54.40;;;;;;5008574;28;20194;-47
2022/04/10 05:01:16;;;;;;;4.47;3.40;;;8.90;54.50;;;;;;5008172;28;20449;-46
2022/04/10 05:03:41;;;;;;;3.97;3.40;;;9.00;54.60;;;;;;5008925;28;20600;-46
2022/04/10 05:06:07;;;;;;;2.67;2.47;;;9.00;54.60;;;;;;5003931;28;20473;-46
2022/04/10 05:08:33;;;;;;;3.57;3.10;;;9.10;54.60;;;;;;5003731;28;20621;-46
2022/04/10 05:10:59;;;;;;;3.67;3.37;;;9.10;54.40;;;;;;5005930;28;20201;-45
2022/04/10 05:13:26;;;;;;;4.40;3.93;;;9.10;54.60;;;;;;5003087;28;20201;-46
2022/04/10 05:15:51;;;;;;;3.90;3.50;;;8.70;55.10;;;;;;5008843;28;20453;-45
2022/04/10 05:18:19;;;;;;;5.97;3.37;;;8.70;55.50;;;;;;5006872;28;20508;-46
2022/04/10 05:20:45;;;;;;;4.00;3.23;;;8.80;55.50;;;;;;5006140;28;20198;-46
2022/04/10 05:23:11;;;;;;;5.03;3.87;;;8.90;55.20;;;;;;5007998;28;20501;-45
2022/04/10 05:25:37;;;;;;;5.63;4.10;;;9.10;55.70;;;;;;5007172;28;20948;-46
2022/04/10 05:28:03;;;;;;;6.70;3.17;;;9.30;55.90;;;;;;5006821;28;20854;-45
2022/04/10 05:30:29;;;;;;;6.37;3.37;;;9.50;56.40;;;;;;5007021;28;20468;-46
2022/04/10 05:32:54;;;;;;;3.53;2.80;;;9.80;56.10;;;;;;5006683;28;20936;-45
2022/04/10 05:35:20;;;;;;;6.37;3.40;;;10.00;55.00;;;;;;5002306;28;20209;-47
2022/04/10 05:37:46;;;;;;;5.37;3.13;;;10.10;54.60;;;;;;5003503;28;20257;-46
2022/04/10 05:40:12;;;;;;;5.67;3.30;;;10.30;54.10;;;;;;5005666;28;20190;-46
2022/04/10 05:42:38;;;;;;;6.97;3.47;;;10.50;53.50;;;;;;5006077;28;20229;-46
2022/04/10 05:45:05;;;;;;;3.63;3.23;;;10.50;53.00;;;;;;5001220;28;20525;-47
2022/04/10 05:47:30;;;;;;;3.67;3.33;;;10.60;52.50;;;;;;5000914;28;20445;-46
2022/04/10 05:49:56;;;;;;;7.33;3.93;;;10.70;51.90;;;;;;5008362;28;21164;-47
2022/04/10 05:52:21;;;;;;;7.13;4.00;;;10.70;51.60;;;;;;5008367;28;20995;-46
2022/04/10 05:54:47;;;;;;;4.30;4.00;;;10.80;51.60;;;;;;5017745;28;20637;-49
2022/04/10 05:57:12;;;;;;;8.20;5.40;;;10.90;51.70;;;;;;5015122;28;20273;-46
2022/04/10 05:59:38;;;;;;;3.70;3.40;;;11.00;51.60;;;;;;5003430;28;20190;-48
2022/04/10 06:02:04;;;;;;;4.50;3.97;;;11.10;51.40;;;;;;5011416;28;20268;-46
2022/04/10 06:04:30;;;;;;;5.67;4.07;;;11.20;51.10;;;;;;5012510;28;20288;-46
2022/04/10 06:06:55;;;;;;;4.47;4.03;;;11.40;50.80;;;;;;5013367;28;20196;-50
2022/04/10 06:09:21;;;;;;;5.10;3.47;;;11.60;50.70;;;;;;5010376;28;20257;-46
2022/04/10 06:11:46;;;;;;;4.17;3.70;;;11.50;50.10;;;;;;5013579;28;20239;-50
2022/04/10 06:14:12;;;;;;;5.40;3.97;;;11.50;50.40;;;;;;5005355;28;20266;-47
2022/04/10 06:16:37;;;;;;;4.10;3.60;;;11.70;49.90;;;;;;5011366;28;20268;-46
2022/04/10 06:19:03;;;;;;;3.63;3.30;;;11.60;50.00;;;;;;5014292;28;20222;-47
2022/04/10 06:21:29;;;;;;;5.20;3.60;;;11.70;49.50;;;;;;5012037;28;20201;-46
2022/04/10 06:23:54;;;;;;;3.73;3.43;;;11.90;49.60;;;;;;5002855;28;20193;-46
2022/04/10 06:26:20;;;;;;;4.00;3.60;;;12.00;49.00;;;;;;5005000;28;20285;-47
2022/04/10 06:28:45;;;;;;;4.30;3.57;;;12.00;49.30;;;;;;5011600;28;20657;-46
2022/04/10 06:31:11;;;;;;;3.70;3.40;;;12.20;49.20;;;;;;5012320;28;20189;-48
2022/04/10 06:33:37;;;;;;;5.10;4.60;;;12.30;49.30;;;;;;5019531;28;20202;-47
2022/04/10 06:36:03;;;;;;;9.30;3.60;;;12.40;48.80;;;;;;5009399;28;20198;-48
2022/04/10 06:38:28;;;;;;;4.23;3.83;;;12.10;48.70;;;;;;5013012;28;20645;-48
2022/04/10 06:40:54;;;;;;;4.87;3.30;;;12.20;48.80;;;;;;5008897;28;20429;-45
2022/04/10 06:43:20;;;;;;;4.37;3.97;;;12.20;48.40;;;;;;5007194;28;20241;-45
2022/04/10 06:45:46;;;;;;;4.40;4.00;;;12.40;48.20;;;;;;5009722;28;20198;-49
2022/04/10 06:48:12;;;;;;;5.37;3.50;;;12.50;47.60;;;;;;5004696;28;20525;-46
2022/04/10 06:50:38;;;;;;;5.40;4.60;;;12.60;47.30;;;;;;5007822;28;20440;-45
2022/04/10 06:53:03;;;;;;;4.67;3.60;;;12.70;47.10;;;;;;5011956;28;22108;-50
2022/04/10 06:55:31;;;;;;;4.07;3.40;;;12.80;46.90;;;;;;5002208;28;20553;-50
2022/04/10 06:57:57;;;;;;;7.97;3.93;;;12.80;46.90;;;;;;5009902;28;20202;-47
2022/04/10 07:00:22;;;;;;;4.23;3.80;;;12.90;46.70;;;;;;5009468;28;20429;-49
2022/04/10 07:02:48;;;;;;;5.70;3.53;;;13.00;46.40;;;;;;5017908;28;20488;-48
2022/04/10 07:05:14;;;;;;;6.17;5.03;;;13.00;45.90;;;;;;5011304;28;20561;-49
2022/04/10 07:07:40;;;;;;;6.13;4.83;;;13.00;45.80;;;;;;5013745;28;20560;-48
2022/04/10 07:10:05;;;;;;;5.43;4.90;;;12.90;46.30;;;;;;5010335;28;20194;-49
2022/04/10 07:12:31;;;;;;;5.70;4.20;;;13.00;46.30;;;;;;5008099;28;20616;-49
2022/04/10 07:15:01;;;;;;;5.03;4.07;;;13.10;46.20;;;;;;5007765;28;20775;-47
2022/04/10 07:17:27;;;;;;;4.20;3.80;;;13.00;46.30;;;;;;5007884;28;20193;-46
2022/04/10 07:19:53;;;;;;;5.73;4.40;;;13.10;46.50;;;;;;5001488;28;20451;-50
2022/04/10 07:25:03;;;;;;;4.07;3.67;;;12.90;46.80;;;;;;5014086;28;20339;-48
2022/04/10 07:27:29;;;;;;;8.23;4.50;;;12.90;46.70;;;;;;5017609;28;20443;-47
2022/04/10 07:29:55;;;;;;;5.23;4.47;;;12.90;46.50;;;;;;5023102;28;20429;-49
2022/04/10 07:32:20;;;;;;;7.00;4.43;;;12.90;47.10;;;;;;5011931;28;20512;-47
2022/04/10 07:34:46;;;;;;;3.90;3.60;;;13.00;46.60;;;;;;5011823;28;20205;-47
2022/04/10 07:37:11;;;;;;;6.47;4.47;;;13.00;46.90;;;;;;5012951;28;20213;-51
2022/04/10 07:39:37;;;;;;;5.40;4.20;;;13.20;47.00;;;;;;5012466;28;20201;-48
2022/04/10 07:42:03;;;;;;;5.30;4.10;;;13.30;46.00;;;;;;5012040;28;20225;-49
2022/04/10 07:44:29;;;;;;;4.30;3.90;;;13.50;46.10;;;;;;5011732;28;20237;-47
2022/04/10 07:49:39;;;;;;;6.60;4.80;;;13.60;45.10;;;;;;5031612;28;20195;-51
2022/04/10 07:52:05;;;;;;;5.13;3.90;;;13.50;45.40;;;;;;5014237;28;20436;-47
2022/04/10 07:54:30;;;;;;;5.10;3.60;;;13.50;45.60;;;;;;5011864;28;20220;-50
2022/04/10 07:56:56;;;;;;;6.30;5.40;;;13.70;45.70;;;;;;5011976;28;20779;-51
2022/04/10 07:59:23;;;;;;;4.30;3.90;;;13.60;45.40;;;;;;5010841;28;20321;-50
2022/04/10 08:01:49;;;;;;;7.13;4.37;;;13.80;45.40;;;;;;5011788;28;20222;-50
2022/04/10 08:04:14;;;;;;;4.97;4.50;;;14.00;45.30;;;;;;5012151;28;20439;-50
2022/04/10 08:06:40;;;;;;;4.37;3.97;;;14.10;44.30;;;;;;5011628;28;20445;-49
2022/04/10 08:09:06;;;;;;;4.30;3.90;;;13.90;44.20;;;;;;5012676;28;20204;-50
2022/04/10 08:11:31;;;;;;;5.10;3.90;;;14.10;44.20;;;;;;5011225;28;20190;-50
2022/04/10 08:13:57;;;;;;;10.27;4.63;;;14.00;43.90;;;;;;5012279;28;20210;-51
2022/04/10 08:16:22;;;;;;;6.03;4.27;;;14.00;43.80;;;;;;5011377;28;20198;-50
2022/04/10 08:18:48;;;;;;;5.10;4.17;;;13.90;42.80;;;;;;5011960;28;20252;-51
2022/04/10 08:21:14;;;;;;;4.33;3.93;;;13.90;42.50;;;;;;5009322;28;20225;-51
2022/04/10 08:23:39;;;;;;;5.40;3.77;;;13.60;41.70;;;;;;5011656;28;20229;-49
2022/04/10 08:26:05;;;;;;;5.27;3.70;;;13.50;42.60;;;;;;5009291;28;20441;-50
2022/04/10 08:28:32;;;;;;;6.10;3.63;;;13.60;42.90;;;;;;5012188;28;20202;-46
2022/04/10 08:30:58;;;;;;;4.00;3.37;;;13.60;42.70;;;;;;5009326;28;20616;-46
2022/04/10 08:33:23;;;;;;;6.03;3.33;;;13.60;42.80;;;;;;5011777;28;20468;-46
2022/04/10 08:35:49;;;;;;;5.97;4.00;;;13.80;42.70;;;;;;5011187;28;20264;-46
2022/04/10 08:38:14;;;;;;;3.70;3.40;;;14.00;42.60;;;;;;5011340;28;20198;-46
2022/04/10 08:40:40;;;;;;;4.10;3.03;;;14.00;41.80;;;;;;5010590;28;20221;-45
2022/04/10 08:43:07;;;;;;;4.43;3.67;;;14.10;42.10;;;;;;5011497;28;20272;-47
2022/04/10 08:45:33;;;;;;;4.50;3.73;;;14.20;42.10;;;;;;5011062;28;20712;-46
2022/04/10 08:47:59;;;;;;;5.27;3.67;;;14.10;41.70;;;;;;5005158;28;20449;-50
2022/04/10 08:50:26;;;;;;;4.07;3.73;;;14.20;42.40;;;;;;5010619;28;20252;-46
2022/04/10 08:52:55;;;;;;;5.30;3.73;;;14.40;42.50;;;;;;5009967;28;20519;-48
2022/04/10 08:55:21;;;;;;;5.20;3.10;;;14.50;41.80;;;;;;5009462;28;20511;-46
2022/04/10 08:57:47;;;;;;;5.50;3.73;;;14.60;41.60;;;;;;5006847;28;20441;-49
2022/04/10 09:00:13;;;;;;;6.83;3.60;;;14.70;41.20;;;;;;5004095;28;20217;-48
2022/04/10 09:02:55;;;;;;;5.37;3.20;;;14.60;40.60;;;;;;5002583;28;20269;-47
2022/04/10 09:05:22;;;;;;;5.00;4.00;;;14.50;41.00;;;;;;5006136;28;20955;-50
2022/04/10 09:08:08;;;;;;;3.90;3.50;;;14.30;40.60;;;;;;5008133;28;20795;-50
2022/04/10 09:10:53;;;;;;;4.37;4.00;;;14.30;41.10;;;;;;5005637;28;20451;-48
2022/04/10 09:13:26;;;;;;;3.90;3.60;;;14.60;41.00;;;;;;5005785;28;20448;-50
2022/04/10 09:15:59;;;;;;;4.40;4.10;;;14.80;41.20;;;;;;5009593;28;20436;-49
2022/04/10 09:18:24;;;;;;;5.87;4.70;;;15.00;40.60;;;;;;5006635;28;20432;-47
2022/04/10 09:21:06;;;;;;;7.70;3.87;;;15.00;40.50;;;;;;5007812;28;20463;-46
2022/04/10 09:23:32;;;;;;;4.13;3.73;;;15.10;40.50;;;;;;5004485;28;20222;-46
2022/04/10 09:26:00;;;;;;;5.53;4.97;;;15.30;40.60;;;;;;5009354;28;20487;-49
2022/04/10 09:28:46;;;;;;;4.20;3.60;;;15.60;40.40;;;;;;5011947;28;20255;-50
2022/04/10 09:31:25;;;;;;;9.43;3.93;;;15.90;40.40;;;;;;5006752;28;20447;-47
2022/04/10 09:33:52;;;;;;;5.43;3.83;;;16.10;39.70;;;;;;5016968;28;20443;-45
2022/04/10 09:36:28;;;;;;;5.97;3.60;;;16.10;38.50;;;;;;5004817;28;20441;-49
2022/04/10 09:38:54;;;;;;;5.80;4.27;;;16.00;38.90;;;;;;5008376;28;20445;-45
2022/04/10 09:41:20;;;;;;;5.47;3.73;;;15.80;38.50;;;;;;5005771;28;20447;-46
2022/04/10 09:43:46;;;;;;;4.90;3.87;;;15.70;38.40;;;;;;5007854;28;20246;-49
2022/04/10 09:46:13;;;;;;;5.70;4.50;;;15.80;38.00;;;;;;5008143;28;20436;-47
2022/04/10 09:48:39;;;;;;;4.77;4.30;;;15.80;38.20;;;;;;5006402;28;20276;-50
2022/04/10 09:51:05;;;;;;;6.90;3.60;;;15.80;38.60;;;;;;5006798;28;20425;-50
2022/04/10 09:53:32;;;;;;;5.90;3.73;;;15.80;38.90;;;;;;5007285;28;20440;-45
2022/04/10 09:56:05;;;;;;;4.23;3.77;;;15.90;39.20;;;;;;5008476;28;20206;-46
2022/04/10 09:58:33;;;;;;;5.40;3.93;;;16.00;38.10;;;;;;5009149;28;20456;-45
2022/04/10 10:01:00;;;;;;;3.93;3.37;;;15.90;37.60;;;;;;5007437;28;20441;-46
2022/04/10 10:03:28;;;;;;;5.30;3.43;;;15.90;37.30;;;;;;5008143;28;20827;-46
2022/04/10 10:05:54;;;;;;;4.00;3.63;;;16.00;37.70;;;;;;5008857;28;20441;-49
2022/04/10 10:08:22;;;;;;;5.00;3.30;;;16.30;38.00;;;;;;5009639;28;20441;-47
2022/04/10 10:10:48;;;;;;;4.53;3.53;;;16.50;36.30;;;;;;5007763;28;20429;-46
2022/04/10 10:13:14;;;;;;;3.90;3.60;;;16.40;35.40;;;;;;5005724;28;20457;-46
2022/04/10 10:15:42;;;;;;;4.60;4.10;;;16.50;36.30;;;;;;5002832;28;20441;-45
2022/04/10 10:18:12;;;;;;;3.97;3.33;;;16.60;36.40;;;;;;5007046;28;20436;-47
2022/04/10 10:20:40;;;;;;;5.03;3.70;;;16.60;35.40;;;;;;5004768;28;20499;-45
2022/04/10 10:23:13;;;;;;;5.57;3.70;;;16.60;35.50;;;;;;5008758;28;20500;-46
2022/04/10 10:25:58;;;;;;;5.13;3.27;;;16.50;35.50;;;;;;5006432;28;20440;-46
2022/04/10 10:28:57;;;;;;;3.57;3.23;;;16.30;35.40;;;;;;5006614;28;20476;-49
2022/04/10 10:31:46;;;;;;;5.80;2.70;;;16.10;36.20;;;;;;4978084;28;20445;-47
2022/04/10 10:34:12;;;;;;;5.00;3.80;;;15.90;36.50;;;;;;5008506;28;20441;-46
2022/04/10 10:36:38;;;;;;;4.23;3.13;;;16.00;37.50;;;;;;5005191;28;20436;-49
2022/04/10 10:39:05;;;;;;;4.23;3.00;;;16.10;37.90;;;;;;5008607;28;20429;-47
2022/04/10 10:41:33;;;;;;;4.90;4.40;;;16.20;37.70;;;;;;5007302;28;20190;-50
2022/04/10 10:44:36;;;;;;;4.63;3.50;;;15.80;40.80;;;;;;5005340;28;20555;-46
2022/04/10 10:47:04;;;;;;;6.60;4.47;;;15.50;42.30;;;;;;5004146;28;20484;-50
2022/04/10 10:49:30;;;;;;;4.57;3.60;;;15.40;42.80;;;;;;5010064;28;20445;-48
2022/04/10 10:51:57;;;;;;;4.57;4.03;;;15.30;44.60;;;;;;5009815;28;20561;-46
2022/04/10 10:54:34;;;;;;;5.87;4.30;;;15.20;46.10;;;;;;5009573;28;21242;-48
2022/04/10 10:57:31;;;;;;;4.40;4.10;;;15.10;47.50;;;;;;5010141;28;20822;-47
2022/04/10 11:00:14;;;;;;;5.00;3.90;;;15.30;49.30;;;;;;5010346;28;21261;-46
2022/04/10 11:02:44;;;;;;;4.20;3.80;;;15.20;48.60;;;;;;5011521;28;20492;-51
2022/04/10 11:05:32;;;;;;;4.70;3.63;;;15.40;47.10;;;;;;5011361;28;20431;-47
2022/04/10 11:07:58;;;;;;;6.30;3.33;;;15.70;47.10;;;;;;5004470;28;20455;-47
2022/04/10 11:10:28;;;;;;;4.33;3.40;;;16.00;45.40;;;;;;5009510;28;20445;-46
2022/04/10 11:12:58;;;;;;;5.03;3.83;;;16.30;45.10;;;;;;5008817;28;20197;-47
2022/04/10 11:15:28;;;;;;;3.67;3.37;;;16.60;44.20;;;;;;5009795;28;20464;-46
2022/04/10 11:17:54;;;;;;;5.60;3.97;;;16.90;43.40;;;;;;5012061;28;20491;-46
2022/04/10 11:20:21;;;;;;;3.70;3.33;;;17.00;43.20;;;;;;5010724;28;20461;-46
2022/04/10 11:22:49;;;;;;;4.87;3.80;;;17.30;40.80;;;;;;5011512;28;20232;-46
2022/04/10 11:25:41;;;;;;;6.07;3.43;;;17.40;38.70;;;;;;5008827;28;20481;-48
2022/04/10 11:28:07;;;;;;;4.37;3.97;;;17.30;37.40;;;;;;5008561;28;20503;-46
2022/04/10 11:30:39;;;;;;;4.40;4.00;;;17.00;38.10;;;;;;5009677;28;20962;-46
2022/04/10 11:33:09;;;;;;;4.10;3.80;;;16.90;38.00;;;;;;5012543;28;20502;-50
2022/04/10 11:35:41;;;;;;;11.93;4.20;;;16.90;39.60;;;;;;5009053;28;20422;-46
2022/04/10 11:38:12;;;;;;;4.20;3.80;;;17.00;39.00;;;;;;5008679;28;20476;-47
2022/04/10 11:40:42;;;;;;;3.93;3.63;;;17.20;40.00;;;;;;5010112;28;20551;-48
2022/04/10 11:43:08;;;;;;;5.07;4.20;;;17.30;38.70;;;;;;5011251;28;20519;-47
2022/04/10 11:45:35;;;;;;;7.70;4.10;;;17.30;37.50;;;;;;5007741;28;20476;-47
2022/04/10 11:48:05;;;;;;;4.90;3.53;;;17.30;36.70;;;;;;5007815;28;20437;-47
2022/04/10 11:50:31;;;;;;;5.40;3.93;;;17.30;36.50;;;;;;5007950;28;20570;-47
2022/04/10 11:53:06;;;;;;;5.00;3.63;;;17.20;37.10;;;;;;5012159;28;20796;-46
2022/04/10 11:55:40;;;;;;;4.00;3.60;;;17.20;34.70;;;;;;5006411;28;20452;-47
2022/04/10 11:58:21;;;;;;;6.10;3.23;;;17.10;34.40;;;;;;5009706;28;20449;-46
2022/04/10 12:00:52;;;;;;;6.70;3.77;;;17.30;34.70;;;;;;5009359;28;20515;-47
2022/04/10 12:03:19;;;;;;;3.60;3.30;;;17.50;33.70;;;;;;5004668;28;20491;-46
2022/04/10 12:05:45;;;;;;;5.57;4.30;;;17.50;34.30;;;;;;5006554;28;20441;-46
2022/04/10 12:08:11;;;;;;;4.40;4.00;;;17.40;33.50;;;;;;5006334;28;20433;-49
2022/04/10 12:10:37;;;;;;;4.13;3.83;;;17.20;33.40;;;;;;5008084;28;20963;-46
2022/04/10 12:13:03;;;;;;;4.20;3.23;;;16.80;34.70;;;;;;5009762;28;20441;-46
2022/04/10 12:15:29;;;;;;;3.77;3.47;;;16.90;35.70;;;;;;5024086;28;20202;-47
2022/04/10 12:18:07;;;;;;;7.30;4.27;;;17.20;35.80;;;;;;5011154;28;20551;-45
2022/04/10 12:20:44;;;;;;;5.93;4.70;;;17.40;37.60;;;;;;5001550;28;20194;-46
2022/04/10 12:23:18;;;;;;;3.50;3.20;;;17.20;38.70;;;;;;5006776;28;20492;-48
2022/04/10 12:25:44;;;;;;;3.07;2.80;;;17.10;37.30;;;;;;5011388;28;20519;-48
2022/04/10 12:28:10;;;;;;;3.40;2.47;;;16.90;37.00;;;;;;5011611;28;20987;-48
2022/04/10 12:30:38;;;;;;;5.53;3.00;;;16.60;37.20;;;;;;5011333;28;20433;-46
2022/04/10 12:33:04;;;;;;;4.57;3.40;;;16.40;38.80;;;;;;5010351;28;20200;-48
2022/04/10 12:35:36;;;;;;;5.70;2.70;;;16.40;39.10;;;;;;5011389;28;20464;-46
2022/04/10 12:38:03;;;;;;;3.23;2.63;;;16.40;38.30;;;;;;5011577;28;20521;-47
2022/04/10 12:40:28;;;;;;;8.40;3.57;;;16.50;38.00;;;;;;5011073;28;20535;-47
2022/04/10 12:43:02;;;;;;;7.80;4.77;;;16.50;38.10;;;;;;5008322;28;20576;-45
2022/04/10 12:45:30;;;;;;;9.20;3.80;;;16.60;39.70;;;;;;5004522;28;20293;-45
2022/04/10 12:47:56;;;;;;;3.60;3.30;;;16.60;41.00;;;;;;5013140;28;20443;-46
2022/04/10 12:50:23;;;;;;;8.03;3.13;;;16.50;41.80;;;;;;4997416;28;20442;-46
2022/04/10 12:52:52;;;;;;;3.70;3.33;;;16.50;41.70;;;;;;5000630;28;20924;-45
2022/04/10 12:55:24;;;;;;;4.27;3.40;;;16.70;41.70;;;;;;5007510;28;20440;-46